Terminal Aerodrome Forecast
Issued by NWS

Home | Current Version | Previous Version | Text Only | Print | Product List | Glossary On
Versions: 1 2 3 4 5 6 7 8 9 10 11 12 13 14 15 16 17 18 19 20 21 22 23 24 25 26 27 28 29 30 31 32 33 34
000
FTUS44 KHGX 262339
TAFSGR
TAF
KSGR 262339Z 2700/2724 15008KT P6SM VCSH OVC022
     FM270800 14009KT 4SM BR VCSH SCT005 BKN015
     FM271100 16004KT 2SM BR SCT005 OVC010
     FM271600 20007KT 3SM BR VCSH SCT010 BKN020
     FM272000 26010KT 4SM BR VCTS BKN015CB=

USA.gov is the U.S. government's official web portal to all federal, state and local government web resources and services.